Time;durP1;ratioP1;P1;durP2;ratioP2;P2;SDS_P1;SDS_P2;PMS_P1;PMS_P2;Temp;Humidity;BMP_temperature;BMP_pressure;BME280_temperature;BME280_humidity;BME280_pressure;Samples;Min_cycle;Max_cycle;Signal;HPM_P1;HPM_P2
2021/12/28 00:02:03;;;;;;;;;;;;;;;21.29;33.71;94401.38;10436013;28;1897;-64
2021/12/28 00:07:04;;;;;;;;;;;;;;;21.30;33.76;94408.97;10435291;28;1912;-64
2021/12/28 00:12:05;;;;;;;;;;;;;;;21.31;33.65;94405.25;10435604;28;1814;-64
2021/12/28 00:22:24;;;;;;;;;;;;;;;21.29;33.82;94402.16;10430563;28;2124;-64
2021/12/28 00:27:25;;;;;;;;;;;;;;;21.31;33.62;94404.50;10447790;28;1856;-63
2021/12/28 00:32:25;;;;;;;;;;;;;;;21.31;33.65;94399.22;10443554;28;1853;-63
2021/12/28 00:37:25;;;;;;;;;;;;;;;21.32;33.45;94395.47;10440156;28;1850;-63
2021/12/28 00:42:26;;;;;;;;;;;;;;;21.33;33.38;94400.44;10441289;28;1947;-64
2021/12/28 00:47:26;;;;;;;;;;;;;;;21.34;33.47;94399.38;10441090;28;1795;-64
2021/12/28 00:52:26;;;;;;;;;;;;;;;21.33;33.34;94405.72;10443191;28;1919;-64
2021/12/28 00:57:27;;;;;;;;;;;;;;;21.34;33.46;94403.84;10442557;28;2017;-63
2021/12/28 01:02:27;;;;;;;;;;;;;;;21.33;33.39;94407.59;10440767;28;1993;-63
2021/12/28 01:07:27;;;;;;;;;;;;;;;21.36;33.28;94399.06;10440581;28;2133;-62
2021/12/28 01:12:28;;;;;;;;;;;;;;;21.36;33.45;94420.13;10428289;28;2585;-63
2021/12/28 01:17:28;;;;;;;;;;;;;;;21.37;33.23;94411.16;10437705;28;2139;-64
2021/12/28 01:22:29;;;;;;;;;;;;;;;21.37;33.34;94421.69;10426179;28;2192;-64
2021/12/28 01:27:29;;;;;;;;;;;;;;;21.38;33.20;94417.97;10429251;28;2045;-64
2021/12/28 01:32:29;;;;;;;;;;;;;;;21.37;33.10;94414.53;10451308;23;1964;-38
2021/12/28 01:37:30;;;;;;;;;;;;;;;21.36;33.17;94413.00;10445272;28;1870;-39
2021/12/28 01:42:31;;;;;;;;;;;;;;;21.37;33.15;94409.28;10438598;28;1917;-41
2021/12/28 01:47:31;;;;;;;;;;;;;;;21.35;33.09;94406.19;10443496;28;1932;-43
2021/12/28 01:52:31;;;;;;;;;;;;;;;21.37;32.95;94397.97;10441285;28;1920;-39
2021/12/28 01:57:32;;;;;;;;;;;;;;;21.38;32.91;94389.75;10438234;28;2568;-43
2021/12/28 02:02:32;;;;;;;;;;;;;;;21.37;33.01;94379.53;10442869;28;1976;-43
2021/12/28 02:07:33;;;;;;;;;;;;;;;21.38;33.00;94371.31;10438210;28;1862;-43
2021/12/28 02:12:33;;;;;;;;;;;;;;;21.38;33.07;94362.59;10437234;28;1967;-39
2021/12/28 02:17:34;;;;;;;;;;;;;;;21.38;32.88;94352.06;10434099;28;2028;-39
2021/12/28 02:22:34;;;;;;;;;;;;;;;21.39;32.73;94356.25;10436099;28;1975;-38
2021/12/28 02:27:35;;;;;;;;;;;;;;;21.39;32.92;94362.28;10434306;28;2025;-39
2021/12/28 02:32:35;;;;;;;;;;;;;;;21.39;32.82;94358.91;10441261;28;1981;-39
2021/12/28 02:37:36;;;;;;;;;;;;;;;21.38;32.80;94358.13;10424154;28;1900;-38
2021/12/28 02:42:36;;;;;;;;;;;;;;;21.38;32.80;94339.66;10441560;28;1980;-38
2021/12/28 02:47:37;;;;;;;;;;;;;;;21.37;33.02;94321.53;10434710;28;1918;-39
2021/12/28 02:52:37;;;;;;;;;;;;;;;21.39;32.67;94324.63;10435665;28;2047;-39
2021/12/28 02:57:40;;;;;;;;;;;;;;;21.38;32.58;94315.94;10430010;28;1915;-38
2021/12/28 03:02:41;;;;;;;;;;;;;;;21.38;32.77;94321.22;10434281;28;2005;-39
2021/12/28 03:07:41;;;;;;;;;;;;;;;21.37;32.61;94303.84;10435877;28;2010;-38
2021/12/28 03:12:42;;;;;;;;;;;;;;;21.37;32.72;94303.09;10438937;28;1892;-42
2021/12/28 03:17:42;;;;;;;;;;;;;;;21.39;32.77;94282.47;10437961;28;1960;-38
2021/12/28 03:22:44;;;;;;;;;;;;;;;21.38;32.50;94278.25;10438417;28;1996;-39
2021/12/28 03:27:47;;;;;;;;;;;;;;;21.41;32.31;94280.28;10435700;28;1970;-40
2021/12/28 03:32:48;;;;;;;;;;;;;;;21.38;32.44;94273.78;10435556;28;1982;-39
2021/12/28 03:37:48;;;;;;;;;;;;;;;21.37;32.52;94263.56;10439587;28;1951;-39
2021/12/28 03:42:49;;;;;;;;;;;;;;;21.37;32.47;94268.81;10438198;28;1964;-40
2021/12/28 03:47:49;;;;;;;;;;;;;;;21.37;32.46;94261.66;10431872;28;1908;-45
2021/12/28 03:52:49;;;;;;;;;;;;;;;21.37;32.51;94260.91;10434936;28;1966;-39
2021/12/28 03:57:50;;;;;;;;;;;;;;;21.39;32.31;94266.66;10436759;28;1945;-43
2021/12/28 04:02:50;;;;;;;;;;;;;;;21.41;32.51;94257.31;10448746;28;1987;-39
2021/12/28 04:07:51;;;;;;;;;;;;;;;21.41;32.20;94261.84;10447542;28;1904;-40
2021/12/28 04:12:51;;;;;;;;;;;;;;;21.37;32.28;94256.41;10447850;28;2015;-43
2021/12/28 04:17:52;;;;;;;;;;;;;;;21.40;32.27;94247.09;10443722;28;2015;-43
2021/12/28 04:22:52;;;;;;;;;;;;;;;21.38;32.18;94239.50;10437137;28;2213;-39
2021/12/28 04:27:54;;;;;;;;;;;;;;;21.41;32.46;94246.00;10444006;28;1968;-40
2021/12/28 04:32:55;;;;;;;;;;;;;;;21.37;32.25;94231.91;10444170;28;2011;-42
2021/12/28 04:37:55;;;;;;;;;;;;;;;21.38;32.32;94215.78;10442421;28;1978;-39
2021/12/28 04:42:56;;;;;;;;;;;;;;;21.41;32.18;94212.50;10444114;28;2105;-41
2021/12/28 04:47:56;;;;;;;;;;;;;;;21.39;32.04;94209.41;10442032;28;1928;-45
2021/12/28 04:52:58;;;;;;;;;;;;;;;21.41;32.09;94199.31;10441635;28;1969;-46
2021/12/28 04:57:58;;;;;;;;;;;;;;;21.38;32.24;94194.69;10439294;28;1877;-44
2021/12/28 05:02:58;;;;;;;;;;;;;;;21.39;32.28;94190.19;10444018;28;2149;-43
2021/12/28 05:07:59;;;;;;;;;;;;;;;21.37;32.12;94192.38;10443628;28;1910;-43
2021/12/28 05:12:59;;;;;;;;;;;;;;;21.40;32.25;94194.38;10439570;28;1908;-44
2021/12/28 05:18:00;;;;;;;;;;;;;;;21.39;32.02;94190.19;10434140;28;1921;-41
2021/12/28 05:23:00;;;;;;;;;;;;;;;21.41;32.10;94178.22;10445056;28;1994;-45
2021/12/28 05:28:01;;;;;;;;;;;;;;;21.39;32.18;94175.13;10441244;28;1846;-43
2021/12/28 05:33:02;;;;;;;;;;;;;;;21.40;32.02;94170.66;10443670;28;1932;-43
2021/12/28 05:38:02;;;;;;;;;;;;;;;21.38;32.01;94165.69;10441141;28;1909;-43
2021/12/28 05:43:02;;;;;;;;;;;;;;;21.36;32.12;94161.81;10444680;28;1966;-43
2021/12/28 05:48:03;;;;;;;;;;;;;;;21.35;32.20;94155.03;10441346;28;1948;-45
2021/12/28 05:53:04;;;;;;;;;;;;;;;21.38;32.02;94151.75;10443300;28;1916;-46
2021/12/28 05:58:04;;;;;;;;;;;;;;;21.39;31.96;94155.94;10434027;28;1929;-42
2021/12/28 06:03:04;;;;;;;;;;;;;;;21.41;32.00;94154.50;10430629;28;2041;-39
2021/12/28 06:08:05;;;;;;;;;;;;;;;21.38;31.89;94159.66;10436428;28;1778;-39
2021/12/28 06:13:05;;;;;;;;;;;;;;;21.41;32.06;94161.66;10429762;28;1937;-39
2021/12/28 06:18:05;;;;;;;;;;;;;;;21.42;31.73;94152.66;10430186;28;1833;-38
2021/12/28 06:23:06;;;;;;;;;;;;;;;21.44;31.79;94161.03;10434228;28;1981;-41
2021/12/28 06:28:06;;;;;;;;;;;;;;;21.42;31.68;94176.38;10436341;28;1801;-42
2021/12/28 06:33:07;;;;;;;;;;;;;;;21.43;31.84;94180.56;10439963;28;1845;-47
2021/12/28 06:38:07;;;;;;;;;;;;;;;21.39;31.81;94183.03;10435077;28;1780;-41
2021/12/28 06:43:08;;;;;;;;;;;;;;;21.43;31.68;94177.94;10437081;28;2388;-39
2021/12/28 06:48:08;;;;;;;;;;;;;;;21.41;31.89;94180.13;10432542;28;1811;-41
2021/12/28 06:53:09;;;;;;;;;;;;;;;21.44;31.62;94187.38;10436798;28;2226;-39
2021/12/28 06:58:09;;;;;;;;;;;;;;;21.40;31.76;94192.50;10437166;28;2336;-44
2021/12/28 07:03:09;;;;;;;;;;;;;;;21.41;31.72;94180.88;10436792;28;1911;-40
2021/12/28 07:08:10;;;;;;;;;;;;;;;21.44;31.72;94177.63;10439339;28;1753;-39
2021/12/28 07:13:10;;;;;;;;;;;;;;;21.42;31.63;94155.28;10439547;28;1893;-39
2021/12/28 07:18:11;;;;;;;;;;;;;;;21.41;31.60;94159.03;10433419;28;1943;-39
2021/12/28 07:23:11;;;;;;;;;;;;;;;21.43;31.79;94154.22;10439851;28;1923;-42
2021/12/28 07:28:12;;;;;;;;;;;;;;;21.42;31.56;94148.16;10434655;28;1770;-41
2021/12/28 07:33:12;;;;;;;;;;;;;;;21.43;31.59;94152.31;10443120;22;3889;-62
2021/12/28 07:38:13;;;;;;;;;;;;;;;21.41;31.89;94159.03;10409613;28;1823;-62
2021/12/28 07:43:14;;;;;;;;;;;;;;;21.40;31.67;94163.53;10423455;28;2025;-62
2021/12/28 07:48:14;;;;;;;;;;;;;;;21.42;31.78;94179.00;10412042;28;1812;-62
2021/12/28 07:53:14;;;;;;;;;;;;;;;21.40;31.66;94173.28;10423028;28;2140;-62
2021/12/28 07:58:15;;;;;;;;;;;;;;;21.44;31.49;94197.91;10406686;28;1822;-61
2021/12/28 08:03:15;;;;;;;;;;;;;;;21.41;31.50;94194.03;10402286;28;1962;-60
2021/12/28 08:08:16;;;;;;;;;;;;;;;21.43;31.46;94230.66;10417016;28;1779;-61
2021/12/28 08:13:16;;;;;;;;;;;;;;;21.45;31.50;94223.22;10418322;28;1419;-62
2021/12/28 08:18:17;;;;;;;;;;;;;;;21.43;31.71;94233.28;10403305;28;2341;-62
2021/12/28 08:23:17;;;;;;;;;;;;;;;21.46;31.49;94228.16;10400605;28;2148;-62
2021/12/28 08:28:17;;;;;;;;;;;;;;;21.47;31.73;94234.22;10422015;28;1970;-65
2021/12/28 08:33:18;;;;;;;;;;;;;;;21.52;31.89;94231.38;10409514;28;1779;-62
2021/12/28 08:38:19;;;;;;;;;;;;;;;21.59;32.35;94245.66;10403286;28;1836;-63
2021/12/28 08:43:19;;;;;;;;;;;;;;;21.57;32.56;94239.91;10412395;28;2338;-63
2021/12/28 08:48:19;;;;;;;;;;;;;;;21.57;32.56;94250.47;10407616;28;1853;-63
2021/12/28 08:53:20;;;;;;;;;;;;;;;21.52;32.48;94257.75;10411853;28;1850;-63
2021/12/28 08:58:20;;;;;;;;;;;;;;;21.51;32.37;94256.22;10403808;28;1863;-63
2021/12/28 09:03:21;;;;;;;;;;;;;;;21.51;32.63;94266.75;10401540;28;1971;-61
2021/12/28 09:08:21;;;;;;;;;;;;;;;21.53;32.42;94272.50;10399086;28;1961;-63
2021/12/28 09:13:21;;;;;;;;;;;;;;;21.51;32.61;94264.13;10401643;28;1831;-58
2021/12/28 09:18:22;;;;;;;;;;;;;;;21.53;32.61;94264.59;10390684;28;1863;-63
2021/12/28 09:23:23;;;;;;;;;;;;;;;21.54;32.52;94284.56;10403580;28;1963;-62
2021/12/28 09:28:23;;;;;;;;;;;;;;;21.53;32.57;94298.88;10403164;28;1835;-63
2021/12/28 09:33:26;;;;;;;;;;;;;;;21.53;32.67;94293.59;10403175;28;1982;-63
2021/12/28 09:38:27;;;;;;;;;;;;;;;21.53;32.39;94275.91;10418773;28;2615;-63
2021/12/28 09:43:28;;;;;;;;;;;;;;;21.54;32.46;94271.41;10404077;28;2190;-63
2021/12/28 09:48:28;;;;;;;;;;;;;;;21.56;32.59;94269.22;10402610;28;2301;-63
2021/12/28 09:53:28;;;;;;;;;;;;;;;21.58;32.45;94270.47;10401074;28;1902;-64
2021/12/28 09:58:29;;;;;;;;;;;;;;;21.56;32.57;94262.09;10404241;28;1776;-63
2021/12/28 10:03:29;;;;;;;;;;;;;;;21.53;32.53;94259.31;10402326;28;1902;-66
2021/12/28 10:08:30;;;;;;;;;;;;;;;21.56;32.41;94263.94;10412809;28;1831;-65
2021/12/28 10:13:30;;;;;;;;;;;;;;;21.55;32.60;94267.69;10403713;28;1827;-64
2021/12/28 10:18:30;;;;;;;;;;;;;;;21.58;32.69;94267.81;10399842;28;1850;-65
2021/12/28 10:23:32;;;;;;;;;;;;;;;21.58;32.40;94264.41;10404002;28;2317;-64
2021/12/28 10:28:33;;;;;;;;;;;;;;;21.55;32.44;94257.91;10400391;28;1819;-65
2021/12/28 10:33:36;;;;;;;;;;;;;;;21.54;32.22;94260.84;10404681;28;1814;-65
2021/12/28 10:38:38;;;;;;;;;;;;;;;21.49;32.46;94229.41;10400322;28;2095;-65
2021/12/28 10:43:39;;;;;;;;;;;;;;;21.50;32.41;94217.75;10397361;28;2120;-65
2021/12/28 10:48:46;;;;;;;;;;;;;;;21.47;32.52;94216.53;10403186;28;1835;-65
2021/12/28 10:54:06;;;;;;;;;;;;;;;21.47;32.21;94210.50;10398295;28;1802;-65
2021/12/28 10:59:06;;;;;;;;;;;;;;;21.45;32.25;94210.03;10396831;28;2453;-65
2021/12/28 11:04:09;;;;;;;;;;;;;;;21.46;32.27;94195.75;10409324;28;2008;-65
2021/12/28 11:09:14;;;;;;;;;;;;;;;21.46;32.34;94188.63;10401583;28;1874;-65
2021/12/28 11:14:17;;;;;;;;;;;;;;;21.43;32.12;94186.59;10401566;28;1838;-65
2021/12/28 11:19:24;;;;;;;;;;;;;;;21.44;32.34;94174.19;10400124;28;1828;-65
2021/12/28 11:24:28;;;;;;;;;;;;;;;21.42;32.44;94165.84;10401733;28;1969;-65
2021/12/28 11:29:30;;;;;;;;;;;;;;;21.42;32.51;94163.19;10397678;28;1847;-66
2021/12/28 11:34:32;;;;;;;;;;;;;;;21.41;32.18;94153.75;10398006;28;1883;-64
2021/12/28 11:39:33;;;;;;;;;;;;;;;21.42;32.31;94142.88;10401502;28;1847;-65
2021/12/28 11:44:35;;;;;;;;;;;;;;;21.40;32.14;94128.47;10403211;28;1991;-66
2021/12/28 11:49:35;;;;;;;;;;;;;;;21.41;31.93;94124.75;10415943;28;1842;-65
2021/12/28 11:54:37;;;;;;;;;;;;;;;21.41;32.13;94114.22;10399478;28;1763;-65
2021/12/28 11:59:39;;;;;;;;;;;;;;;21.40;32.25;94104.75;10375495;28;1947;-65
2021/12/28 12:04:43;;;;;;;;;;;;;;;21.44;31.98;94100.38;10404734;28;1914;-66
2021/12/28 12:09:49;;;;;;;;;;;;;;;21.40;32.03;94100.25;10401454;28;1781;-65
2021/12/28 12:15:00;;;;;;;;;;;;;;;21.39;31.88;94096.06;10404574;28;1827;-66
2021/12/28 12:20:03;;;;;;;;;;;;;;;21.42;31.99;94094.66;10404273;28;1848;-65
2021/12/28 12:25:07;;;;;;;;;;;;;;;21.41;31.93;94088.59;10407095;28;1918;-64
2021/12/28 12:30:17;;;;;;;;;;;;;;;21.40;32.10;94071.25;10408291;28;1794;-65
2021/12/28 12:35:26;;;;;;;;;;;;;;;21.45;31.93;94065.03;10406530;28;1921;-65
2021/12/28 12:40:59;;;;;;;;;;;;;;;21.45;31.86;94062.41;10407906;28;2109;-65
2021/12/28 12:46:18;;;;;;;;;;;;;;;21.47;31.82;94055.72;10402504;28;1914;-65
2021/12/28 12:51:18;;;;;;;;;;;;;;;21.45;32.04;94054.50;10407458;28;1874;-65
2021/12/28 12:56:20;;;;;;;;;;;;;;;21.44;31.86;94043.19;10421471;28;1810;-65
2021/12/28 13:01:27;;;;;;;;;;;;;;;21.44;31.94;94045.03;10405549;28;1801;-66
2021/12/28 13:06:39;;;;;;;;;;;;;;;21.42;32.01;94048.00;10403558;28;1913;-66
2021/12/28 13:11:40;;;;;;;;;;;;;;;21.42;31.79;94042.72;10407770;28;1903;-64
2021/12/28 13:16:40;;;;;;;;;;;;;;;21.42;31.75;94042.72;10405877;28;1839;-66
2021/12/28 13:21:53;;;;;;;;;;;;;;;21.43;31.74;94027.69;10407675;28;1882;-65
2021/12/28 13:26:59;;;;;;;;;;;;;;;21.42;31.88;94044.56;10403025;28;1914;-65
2021/12/28 13:32:17;;;;;;;;;;;;;;;21.43;31.79;94038.22;10417381;28;1858;-65
2021/12/28 13:37:27;;;;;;;;;;;;;;;21.44;31.84;94037.13;10428543;22;2133;-45
2021/12/28 13:42:27;;;;;;;;;;;;;;;21.44;31.84;94026.59;10445610;28;1816;-47
2021/12/28 13:47:28;;;;;;;;;;;;;;;21.43;31.77;94030.31;10418590;28;2060;-42
2021/12/28 13:52:38;;;;;;;;;;;;;;;21.44;31.74;94027.34;10399878;28;2292;-46
2021/12/28 13:57:39;;;;;;;;;;;;;;;21.45;31.73;94031.53;10401095;28;1762;-44
2021/12/28 14:02:40;;;;;;;;;;;;;;;21.42;31.59;94032.19;10402467;28;1772;-45
2021/12/28 14:07:40;;;;;;;;;;;;;;;21.43;31.77;94019.78;10398121;28;1979;-40
2021/12/28 14:12:41;;;;;;;;;;;;;;;21.49;31.69;94013.22;10400577;28;1756;-44
2021/12/28 14:17:41;;;;;;;;;;;;;;;21.46;31.59;94011.22;10400912;28;1806;-46
2021/12/28 14:22:48;;;;;;;;;;;;;;;21.46;31.67;94005.94;10399352;28;1768;-43
2021/12/28 14:27:56;;;;;;;;;;;;;;;21.44;31.55;94006.28;10398857;28;1981;-46
2021/12/28 14:32:56;;;;;;;;;;;;;;;21.43;31.72;93993.41;10399038;28;1798;-47
2021/12/28 14:37:57;;;;;;;;;;;;;;;21.48;31.70;93987.94;10398185;28;1820;-46
2021/12/28 14:43:04;;;;;;;;;;;;;;;21.42;31.68;93994.50;10399905;28;2001;-48
2021/12/28 14:48:04;;;;;;;;;;;;;;;21.43;31.51;93990.78;10376604;28;1853;-44
2021/12/28 14:53:07;;;;;;;;;;;;;;;21.44;31.74;93985.19;10400282;28;1883;-47
2021/12/28 14:58:15;;;;;;;;;;;;;;;21.48;31.64;93995.84;10391753;28;1822;-44
2021/12/28 15:03:23;;;;;;;;;;;;;;;21.46;31.86;93990.91;10404842;28;1909;-48
2021/12/28 15:08:24;;;;;;;;;;;;;;;21.50;31.95;94002.34;10393254;28;1817;-50
2021/12/28 15:13:27;;;;;;;;;;;;;;;21.47;32.33;93997.75;10398798;28;1814;-46
2021/12/28 15:18:31;;;;;;;;;;;;;;;21.55;32.13;93993.50;10394625;28;1927;-46
2021/12/28 15:23:32;;;;;;;;;;;;;;;21.57;32.53;93997.34;10397260;28;1964;-45
2021/12/28 15:28:33;;;;;;;;;;;;;;;21.61;32.44;94003.53;10396982;28;1835;-46
2021/12/28 15:33:35;;;;;;;;;;;;;;;21.64;32.57;94010.00;10396658;28;1785;-43
2021/12/28 15:38:37;;;;;;;;;;;;;;;21.68;32.54;94014.31;10394997;28;1782;-46
2021/12/28 15:43:41;;;;;;;;;;;;;;;21.69;32.94;94021.16;10398148;28;1985;-42
2021/12/28 15:48:42;;;;;;;;;;;;;;;21.68;32.59;94008.25;10396460;28;1830;-45
2021/12/28 15:53:42;;;;;;;;;;;;;;;21.68;33.32;94021.44;10400263;28;1835;-47
2021/12/28 15:58:43;;;;;;;;;;;;;;;21.71;32.84;94026.09;10399283;28;1835;-43
2021/12/28 16:03:44;;;;;;;;;;;;;;;21.65;33.21;94041.34;10408355;28;1969;-48
2021/12/28 16:08:45;;;;;;;;;;;;;;;21.65;33.17;94041.34;10400438;28;1847;-46
2021/12/28 16:13:45;;;;;;;;;;;;;;;21.62;33.05;94067.56;10402961;28;2129;-48
2021/12/28 16:18:46;;;;;;;;;;;;;;;21.62;33.04;94083.38;10400156;28;1888;-48
2021/12/28 16:23:47;;;;;;;;;;;;;;;21.63;32.71;94071.75;10396948;28;2145;-49
2021/12/28 16:28:52;;;;;;;;;;;;;;;21.63;32.52;94082.31;10382564;28;1877;-46
2021/12/28 16:33:53;;;;;;;;;;;;;;;21.65;32.46;94086.16;10397413;28;1755;-45
2021/12/28 16:38:54;;;;;;;;;;;;;;;21.64;32.80;94075.91;10399366;28;1837;-50
2021/12/28 16:43:55;;;;;;;;;;;;;;;21.65;32.49;94094.06;10401161;28;1949;-45
2021/12/28 16:48:55;;;;;;;;;;;;;;;21.66;32.58;94105.38;10402822;28;1795;-44
2021/12/28 16:53:56;;;;;;;;;;;;;;;21.64;32.36;94102.28;10403883;28;1772;-53
2021/12/28 16:59:00;;;;;;;;;;;;;;;21.63;32.48;94087.56;10398938;28;1851;-49
2021/12/28 17:04:02;;;;;;;;;;;;;;;21.60;32.43;94102.16;10403890;28;1902;-47
2021/12/28 17:09:02;;;;;;;;;;;;;;;21.63;32.46;94111.31;10404258;28;1782;-48
2021/12/28 17:14:03;;;;;;;;;;;;;;;21.56;32.44;94117.06;10404790;28;1772;-43
2021/12/28 17:19:03;;;;;;;;;;;;;;;21.59;32.37;94127.00;10402724;28;1901;-47
2021/12/28 17:24:04;;;;;;;;;;;;;;;21.63;32.28;94145.59;10401677;28;1969;-42
2021/12/28 17:29:05;;;;;;;;;;;;;;;21.62;32.51;94144.03;10379026;28;1875;-45
2021/12/28 17:34:06;;;;;;;;;;;;;;;21.59;31.99;94147.31;10401490;28;1864;-49
2021/12/28 17:39:06;;;;;;;;;;;;;;;21.59;31.81;94158.63;10400665;28;1803;-50
2021/12/28 17:44:10;;;;;;;;;;;;;;;21.61;31.72;94176.78;10368757;28;1931;-48
2021/12/28 17:49:10;;;;;;;;;;;;;;;21.60;32.11;94207.63;10401462;28;1799;-50
2021/12/28 17:54:11;;;;;;;;;;;;;;;21.59;31.87;94187.66;10403840;28;1770;-47
2021/12/28 17:59:12;;;;;;;;;;;;;;;21.60;31.81;94165.44;10399705;28;1813;-46
2021/12/28 18:04:12;;;;;;;;;;;;;;;21.57;31.83;94202.22;10399237;28;1930;-47
2021/12/28 18:09:12;;;;;;;;;;;;;;;21.60;31.80;94201.56;10402878;28;1853;-44
2021/12/28 18:14:13;;;;;;;;;;;;;;;21.60;31.66;94202.34;10402612;28;1819;-44
2021/12/28 18:19:13;;;;;;;;;;;;;;;21.58;31.75;94206.41;10399086;28;1969;-50
2021/12/28 18:24:17;;;;;;;;;;;;;;;21.57;31.85;94207.50;10402655;28;1973;-46
2021/12/28 18:29:30;;;;;;;;;;;;;;;21.57;31.76;94228.59;10393632;28;1893;-48
2021/12/28 18:34:31;;;;;;;;;;;;;;;21.58;31.89;94220.34;10392613;28;1870;-49
2021/12/28 18:39:31;;;;;;;;;;;;;;;21.57;31.79;94215.41;10400758;28;1791;-49
2021/12/28 18:44:32;;;;;;;;;;;;;;;21.56;32.02;94221.75;10397243;28;1977;-47
2021/12/28 18:49:32;;;;;;;;;;;;;;;21.52;32.23;94328.94;10395364;28;1841;-48
2021/12/28 18:54:32;;;;;;;;;;;;;;;21.55;31.81;94396.88;10389816;28;1814;-45
2021/12/28 18:59:33;;;;;;;;;;;;;;;21.58;32.10;94412.06;10391050;28;1834;-44
2021/12/28 19:04:33;;;;;;;;;;;;;;;21.50;32.20;94407.56;10397432;28;2028;-43
2021/12/28 19:09:34;;;;;;;;;;;;;;;21.52;32.18;94400.13;10394751;28;1837;-48
2021/12/28 19:14:34;;;;;;;;;;;;;;;21.49;32.23;94374.41;10394331;28;1842;-51
2021/12/28 19:19:35;;;;;;;;;;;;;;;21.46;32.27;94356.56;10394660;28;1891;-48
2021/12/28 19:24:36;;;;;;;;;;;;;;;21.46;32.58;94367.09;10393574;28;1910;-44
2021/12/28 19:29:36;;;;;;;;;;;;;;;21.48;32.19;94352.53;10399232;28;1813;-48
2021/12/28 19:34:36;;;;;;;;;;;;;;;21.45;32.29;94355.78;10412106;28;1837;-48
2021/12/28 19:39:37;;;;;;;;;;;;;;;21.47;32.40;94352.84;10445153;23;2123;-49
2021/12/28 19:44:37;;;;;;;;;;;;;;;21.46;32.47;94348.66;10453350;28;1975;-53
2021/12/28 19:49:38;;;;;;;;;;;;;;;21.46;32.25;94330.19;10455030;28;2016;-50
2021/12/28 19:54:39;;;;;;;;;;;;;;;21.45;32.53;94337.31;10452215;28;1837;-48
2021/12/28 19:59:40;;;;;;;;;;;;;;;21.46;32.34;94338.88;10446595;28;1929;-50
2021/12/28 20:04:40;;;;;;;;;;;;;;;21.47;32.41;94337.81;10452884;28;1971;-51
2021/12/28 20:09:40;;;;;;;;;;;;;;;21.49;32.24;94337.50;10454063;28;1926;-50
2021/12/28 20:14:41;;;;;;;;;;;;;;;21.46;32.47;94312.53;10449321;28;1808;-49
2021/12/28 20:19:41;;;;;;;;;;;;;;;21.43;32.29;94317.66;10450701;28;1905;-50
2021/12/28 20:24:42;;;;;;;;;;;;;;;21.45;32.25;94310.94;10452999;28;1966;-48
2021/12/28 20:29:43;;;;;;;;;;;;;;;21.45;32.29;94284.59;10444473;28;1964;-49
2021/12/28 20:34:43;;;;;;;;;;;;;;;21.46;32.43;94274.84;10453541;28;1883;-52
2021/12/28 20:39:43;;;;;;;;;;;;;;;21.47;32.46;94273.75;10450015;28;1846;-50
2021/12/28 20:44:44;;;;;;;;;;;;;;;21.48;32.28;94267.38;10446481;28;1910;-49
2021/12/28 20:49:47;;;;;;;;;;;;;;;21.46;32.25;94248.47;10441853;28;1735;-52
2021/12/28 20:54:48;;;;;;;;;;;;;;;21.46;32.20;94243.19;10443482;28;1863;-49
2021/12/28 20:59:48;;;;;;;;;;;;;;;21.46;32.14;94230.78;10442223;28;1838;-50
2021/12/28 21:04:49;;;;;;;;;;;;;;;21.48;32.21;94231.25;10443738;28;1910;-52
2021/12/28 21:09:49;;;;;;;;;;;;;;;21.47;32.21;94228.94;10445298;28;1839;-51
2021/12/28 21:14:51;;;;;;;;;;;;;;;21.50;32.04;94217.75;10440576;28;1800;-49
2021/12/28 21:19:51;;;;;;;;;;;;;;;21.48;32.11;94222.56;10444288;28;1821;-51
2021/12/28 21:24:53;;;;;;;;;;;;;;;21.48;32.16;94227.84;10439082;28;1973;-51
2021/12/28 21:30:01;;;;;;;;;;;;;;;21.47;32.14;94227.09;10440052;28;1808;-49
2021/12/28 21:35:02;;;;;;;;;;;;;;;21.51;32.01;94229.84;10441642;28;2362;-48
2021/12/28 21:40:03;;;;;;;;;;;;;;;21.51;32.06;94217.44;10443534;28;1825;-50
2021/12/28 21:45:04;;;;;;;;;;;;;;;21.50;31.91;94226.44;10441063;28;1985;-49
2021/12/28 21:50:05;;;;;;;;;;;;;;;21.56;31.71;94225.19;10442492;28;2091;-51
2021/12/28 21:55:05;;;;;;;;;;;;;;;21.56;31.81;94240.22;10418827;28;1707;-50
2021/12/28 22:00:26;;;;;;;;;;;;;;;21.55;32.04;94255.28;10439215;28;1772;-49
2021/12/28 22:05:27;;;;;;;;;;;;;;;21.60;32.21;94284.09;10436786;28;1961;-52
2021/12/28 22:10:30;;;;;;;;;;;;;;;21.60;32.33;94280.69;10433856;28;3220;-48
2021/12/28 22:15:30;;;;;;;;;;;;;;;21.60;32.30;94275.41;10442839;28;1819;-53
2021/12/28 22:20:31;;;;;;;;;;;;;;;21.62;32.36;94271.38;10431008;28;1899;-48
2021/12/28 22:25:32;;;;;;;;;;;;;;;21.58;32.44;94267.03;10442682;28;1969;-48
2021/12/28 22:30:33;;;;;;;;;;;;;;;21.58;32.38;94272.31;10438118;28;1757;-52
2021/12/28 22:35:34;;;;;;;;;;;;;;;21.58;32.13;94275.72;10438907;28;1836;-50
2021/12/28 22:40:36;;;;;;;;;;;;;;;21.57;32.20;94278.69;10434610;28;1942;-51
2021/12/28 22:45:36;;;;;;;;;;;;;;;21.57;31.96;94286.59;10432637;28;1902;-48
2021/12/28 22:50:37;;;;;;;;;;;;;;;21.55;32.24;94309.88;10436578;28;1846;-52
2021/12/28 22:55:38;;;;;;;;;;;;;;;21.58;32.36;94306.59;10434232;28;1842;-49
2021/12/28 23:00:41;;;;;;;;;;;;;;;21.58;32.41;94310.00;10435599;28;1860;-47
2021/12/28 23:05:42;;;;;;;;;;;;;;;21.59;32.37;94313.44;10437741;28;1968;-51
2021/12/28 23:10:42;;;;;;;;;;;;;;;21.57;32.25;94305.06;10439208;28;1905;-48
2021/12/28 23:15:43;;;;;;;;;;;;;;;21.58;32.48;94314.50;10434538;28;1849;-49
2021/12/28 23:20:43;;;;;;;;;;;;;;;21.53;32.58;94304.13;10440465;28;1945;-51
2021/12/28 23:25:44;;;;;;;;;;;;;;;21.56;32.10;94303.50;10436208;28;1918;-48
2021/12/28 23:30:44;;;;;;;;;;;;;;;21.55;32.18;94315.16;10435749;28;1840;-49
2021/12/28 23:35:45;;;;;;;;;;;;;;;21.56;32.25;94314.03;10435664;28;1808;-48
2021/12/28 23:40:45;;;;;;;;;;;;;;;21.56;32.08;94317.47;10435982;28;1790;-49
2021/12/28 23:45:45;;;;;;;;;;;;;;;21.55;32.16;94315.16;10438843;28;1980;-50
2021/12/28 23:50:46;;;;;;;;;;;;;;;21.56;31.83;94308.75;10437649;28;1803;-49
2021/12/28 23:55:46;;;;;;;;;;;;;;;21.56;31.89;94311.41;10438432;28;1771;-50
